createdAt,value
2022-09-22T00:02:46.329Z,9.40
2022-09-22T00:07:48.367Z,9.40
2022-09-22T00:12:48.348Z,9.30
2022-09-22T00:17:46.649Z,9.30
2022-09-22T00:22:50.337Z,10.50
2022-09-22T00:27:48.086Z,10.50
2022-09-22T00:32:46.447Z,9.70
2022-09-22T00:37:46.441Z,9.70
2022-09-22T00:42:46.481Z,9.80
2022-09-22T00:47:47.115Z,9.80
2022-09-22T00:57:48.054Z,10.20
2022-09-22T01:02:49.731Z,9.60
2022-09-22T01:12:58.182Z,10.40
2022-09-22T01:33:06.473Z,9.30
2022-09-22T01:42:52.478Z,9.20
2022-09-22T01:47:52.377Z,9.20
2022-09-22T01:52:47.488Z,9.70
2022-09-22T01:57:52.553Z,9.70
2022-09-22T02:02:56.692Z,9.40
2022-09-22T02:07:52.864Z,9.40
2022-09-22T02:17:46.851Z,9.20
2022-09-22T02:22:46.837Z,9.60
2022-09-22T02:27:47.449Z,9.60
2022-09-22T02:32:48.818Z,9.40
2022-09-22T02:37:50.047Z,9.40
2022-09-22T02:42:52.694Z,10.00
2022-09-22T02:47:51.368Z,10.00
2022-09-22T02:52:50.737Z,8.40
2022-09-22T02:57:46.964Z,8.40
2022-09-22T03:07:46.844Z,8.20
2022-09-22T03:13:09.471Z,8.80
2022-09-22T03:17:46.885Z,8.80
2022-09-22T03:22:47.367Z,9.70
2022-09-22T03:27:47.224Z,9.70
2022-09-22T03:32:46.895Z,10.50
2022-09-22T03:52:47.013Z,8.50
2022-09-22T04:02:47.060Z,8.10
2022-09-22T04:12:47.448Z,7.90
2022-09-22T04:22:47.028Z,8.00
2022-09-22T04:27:47.051Z,8.00
2022-09-22T04:47:49.348Z,8.50
2022-09-22T04:52:49.479Z,8.40
2022-09-22T04:57:48.448Z,8.40
2022-09-22T05:02:47.278Z,8.30
2022-09-22T05:12:47.746Z,8.00
2022-09-22T05:17:49.520Z,8.00
2022-09-22T05:27:50.496Z,7.70
2022-09-22T05:32:48.004Z,8.90
2022-09-22T05:42:50.358Z,7.80
2022-09-22T05:47:47.631Z,7.80
2022-09-22T05:57:47.259Z,9.20
2022-09-22T06:02:47.290Z,7.60
2022-09-22T06:22:48.023Z,8.80
2022-09-22T06:27:47.919Z,8.80
2022-09-22T06:37:55.748Z,10.70
2022-09-22T06:42:48.429Z,10.40
2022-09-22T06:47:47.371Z,10.40
2022-09-22T06:52:50.155Z,10.50
2022-09-22T06:57:47.416Z,10.50
2022-09-22T07:02:47.493Z,23.90
2022-09-22T07:07:47.456Z,23.90
2022-09-22T07:12:48.141Z,22.30
2022-09-22T07:27:48.111Z,22.60
2022-09-22T07:32:47.504Z,22.60
2022-09-22T07:37:52.689Z,22.60
2022-09-22T07:42:47.923Z,20.20
2022-09-22T07:47:57.492Z,20.20
2022-09-22T07:52:51.714Z,21.50
2022-09-22T07:57:56.855Z,21.50
2022-09-22T08:02:56.765Z,22.50
2022-09-22T08:07:47.735Z,22.50
2022-09-22T08:12:50.225Z,18.60
2022-09-22T08:17:48.112Z,18.60
2022-09-22T08:22:52.684Z,18.50
2022-09-22T08:27:47.707Z,18.50
2022-09-22T08:32:47.668Z,12.10
2022-09-22T08:37:49.316Z,12.10
2022-09-22T08:42:48.751Z,11.20
2022-09-22T08:48:01.177Z,11.20
2022-09-22T08:52:54.695Z,13.00
2022-09-22T08:57:58.738Z,13.00
2022-09-22T09:03:02.143Z,13.20
2022-09-22T09:08:03.168Z,13.20
2022-09-22T09:13:04.067Z,12.40
2022-09-22T09:17:50.902Z,12.40
2022-09-22T09:22:54.606Z,13.00
2022-09-22T09:27:53.967Z,13.00
2022-09-22T09:37:48.014Z,11.60
2022-09-22T09:42:55.074Z,12.50
2022-09-22T09:47:59.014Z,12.50
2022-09-22T09:58:06.704Z,12.80
2022-09-22T10:07:57.279Z,10.60
2022-09-22T10:12:47.979Z,12.00
2022-09-22T10:17:50.193Z,12.00
2022-09-22T10:28:08.736Z,10.90
2022-09-22T10:33:07.875Z,11.60
2022-09-22T10:37:49.720Z,11.60
2022-09-22T10:47:55.433Z,12.30
2022-09-22T10:52:54.700Z,8.20
2022-09-22T10:58:06.388Z,8.20
2022-09-22T11:02:58.038Z,8.00
2022-09-22T11:08:08.980Z,8.00
2022-09-22T11:13:01.332Z,7.40
2022-09-22T11:18:00.216Z,7.40
2022-09-22T11:23:08.025Z,6.80
2022-09-22T11:28:07.443Z,6.80
2022-09-22T11:33:06.972Z,7.10
2022-09-22T11:38:01.048Z,7.10
2022-09-22T11:43:02.105Z,8.40
2022-09-22T11:47:57.116Z,8.40
2022-09-22T11:53:08.482Z,6.50
2022-09-22T11:57:53.153Z,6.50
2022-09-22T12:03:09.357Z,5.10
2022-09-22T12:07:54.672Z,5.10
2022-09-22T12:12:50.720Z,6.80
2022-09-22T12:18:05.096Z,6.80
2022-09-22T12:23:05.588Z,8.40
2022-09-22T12:27:54.290Z,8.40
2022-09-22T12:32:50.081Z,7.20
2022-09-22T12:37:53.071Z,7.20
2022-09-22T12:42:51.478Z,10.10
2022-09-22T12:47:52.249Z,10.10
2022-09-22T12:52:49.151Z,7.60
2022-09-22T12:57:50.391Z,7.60
2022-09-22T13:02:49.338Z,7.10
2022-09-22T13:13:03.173Z,8.00
2022-09-22T13:17:50.092Z,8.00
2022-09-22T13:22:50.065Z,8.80
2022-09-22T13:28:02.830Z,8.80
2022-09-22T13:32:50.881Z,7.40
2022-09-22T13:37:48.703Z,7.40
2022-09-22T13:47:49.429Z,5.90
2022-09-22T13:52:50.274Z,8.40
2022-09-22T13:57:50.572Z,8.40
2022-09-22T14:08:07.766Z,8.10
2022-09-22T14:12:48.746Z,10.20
2022-09-22T14:17:49.276Z,10.20
2022-09-22T14:22:48.700Z,7.60
2022-09-22T14:32:53.711Z,7.50
2022-09-22T14:42:57.182Z,7.60
2022-09-22T14:48:08.862Z,7.60
2022-09-22T14:52:59.092Z,7.70
2022-09-22T14:57:49.776Z,7.70
2022-09-22T15:02:52.900Z,8.20
2022-09-22T15:07:48.630Z,8.20
2022-09-22T15:12:49.776Z,7.70
2022-09-22T15:18:00.188Z,7.70
2022-09-22T15:27:51.942Z,8.80
2022-09-22T15:32:48.689Z,9.80
2022-09-22T15:37:49.066Z,9.80
2022-09-22T15:43:09.015Z,9.00
2022-09-22T15:47:52.879Z,9.00
2022-09-22T15:52:49.097Z,8.30
2022-09-22T15:57:53.623Z,8.30
2022-09-22T16:02:48.967Z,9.70
2022-09-22T16:12:49.098Z,8.30
2022-09-22T16:17:48.964Z,8.30
2022-09-22T16:22:49.846Z,8.50
2022-09-22T16:27:49.357Z,8.50
2022-09-22T16:32:49.025Z,7.70
2022-09-22T16:37:52.970Z,7.70
2022-09-22T16:42:49.596Z,6.50
2022-09-22T16:47:49.039Z,6.50
2022-09-22T16:52:49.253Z,8.70
2022-09-22T16:57:49.054Z,8.70
2022-09-22T17:02:49.082Z,8.70
2022-09-22T17:07:49.601Z,8.70
2022-09-22T17:12:49.115Z,9.10
2022-09-22T17:22:49.165Z,9.90
2022-09-22T17:27:49.123Z,9.90
2022-09-22T17:42:49.165Z,11.40
2022-09-22T17:52:59.146Z,12.70
2022-09-22T17:57:51.595Z,12.70
2022-09-22T18:07:53.512Z,12.40
2022-09-22T18:12:49.346Z,9.40
2022-09-22T18:17:49.256Z,9.40
2022-09-22T18:22:49.432Z,8.80
2022-09-22T18:32:49.399Z,9.70
2022-09-22T18:37:50.131Z,9.70
2022-09-22T18:47:49.393Z,11.50
2022-09-22T18:57:49.462Z,10.00
2022-09-22T19:02:49.900Z,9.20
2022-09-22T19:12:49.753Z,9.50
2022-09-22T19:22:51.188Z,9.20
2022-09-22T19:37:51.151Z,11.50
2022-09-22T19:52:49.651Z,13.20
2022-09-22T19:57:52.025Z,13.20
2022-09-22T20:02:49.568Z,14.30
2022-09-22T20:07:49.766Z,14.30
2022-09-22T20:12:50.594Z,19.30
2022-09-22T20:17:49.784Z,19.30
2022-09-22T20:22:58.974Z,15.60
2022-09-22T20:27:49.736Z,15.60
2022-09-22T20:37:50.503Z,13.90
2022-09-22T20:42:52.150Z,13.90
2022-09-22T20:52:49.844Z,14.80
2022-09-22T21:02:50.320Z,12.30
2022-09-22T21:07:59.644Z,12.30
2022-09-22T21:17:51.192Z,14.20
2022-09-22T21:27:49.746Z,14.00
2022-09-22T21:32:49.946Z,14.50
2022-09-22T21:37:53.547Z,14.50
2022-09-22T21:42:50.709Z,15.40
2022-09-22T21:47:50.042Z,15.40
2022-09-22T21:52:49.813Z,13.50
2022-09-22T21:57:51.088Z,13.50
2022-09-22T22:02:59.769Z,13.90
2022-09-22T22:12:49.884Z,13.10
2022-09-22T22:17:49.854Z,13.10
2022-09-22T22:22:49.912Z,14.50
2022-09-22T22:27:53.837Z,14.50
2022-09-22T22:32:49.934Z,13.20
2022-09-22T22:42:50.241Z,11.90
2022-09-22T22:52:50.306Z,14.20
2022-09-22T22:57:50.002Z,14.20
2022-09-22T23:12:51.421Z,13.40
2022-09-22T23:22:50.070Z,14.00
2022-09-22T23:27:50.131Z,14.00
2022-09-22T23:32:50.045Z,13.80
2022-09-22T23:37:50.904Z,13.80
2022-09-22T23:42:50.570Z,13.00
2022-09-22T23:52:50.194Z,11.40
2022-09-22T23:57:50.197Z,11.40
